sensor_id;sensor_type;location;lat;lon;timestamp;temperature;humidity
13744;DHT22;6943;52.368;9.966;2023-02-28T00:00:47;2.20;1.00
13744;DHT22;6943;52.368;9.966;2023-02-28T00:03:13;2.30;1.00
13744;DHT22;6943;52.368;9.966;2023-02-28T00:05:39;2.40;1.00
13744;DHT22;6943;52.368;9.966;2023-02-28T00:08:04;2.50;1.00
13744;DHT22;6943;52.368;9.966;2023-02-28T00:10:31;2.60;1.00
13744;DHT22;6943;52.368;9.966;2023-02-28T00:13:01;2.60;1.00
13744;DHT22;6943;52.368;9.966;2023-02-28T00:15:27;2.60;1.00
13744;DHT22;6943;52.368;9.966;2023-02-28T00:17:53;2.60;1.00
13744;DHT22;6943;52.368;9.966;2023-02-28T00:20:19;2.60;1.00
13744;DHT22;6943;52.368;9.966;2023-02-28T00:22:50;2.50;1.00
13744;DHT22;6943;52.368;9.966;2023-02-28T00:25:20;2.50;1.00
13744;DHT22;6943;52.368;9.966;2023-02-28T00:27:46;2.40;1.00
13744;DHT22;6943;52.368;9.966;2023-02-28T00:30:15;2.30;1.00
13744;DHT22;6943;52.368;9.966;2023-02-28T00:32:41;2.20;1.00
13744;DHT22;6943;52.368;9.966;2023-02-28T00:35:07;2.10;1.00
13744;DHT22;6943;52.368;9.966;2023-02-28T00:37:34;2.00;1.00
13744;DHT22;6943;52.368;9.966;2023-02-28T00:39:59;1.90;1.00
13744;DHT22;6943;52.368;9.966;2023-02-28T00:42:25;1.70;1.00
13744;DHT22;6943;52.368;9.966;2023-02-28T00:44:51;1.60;1.00
13744;DHT22;6943;52.368;9.966;2023-02-28T00:47:16;1.50;86.40
13744;DHT22;6943;52.368;9.966;2023-02-28T00:49:42;1.40;99.90
13744;DHT22;6943;52.368;9.966;2023-02-28T00:52:07;1.30;99.90
13744;DHT22;6943;52.368;9.966;2023-02-28T00:54:33;1.30;99.90
13744;DHT22;6943;52.368;9.966;2023-02-28T00:56:59;1.20;99.90
13744;DHT22;6943;52.368;9.966;2023-02-28T00:59:25;1.20;99.90
13744;DHT22;6943;52.368;9.966;2023-02-28T01:01:50;1.10;1.00
13744;DHT22;6943;52.368;9.966;2023-02-28T01:04:16;1.10;1.00
13744;DHT22;6943;52.368;9.966;2023-02-28T01:06:41;1.00;1.00
13744;DHT22;6943;52.368;9.966;2023-02-28T01:09:08;0.90;1.00
13744;DHT22;6943;52.368;9.966;2023-02-28T01:11:34;0.80;1.00
13744;DHT22;6943;52.368;9.966;2023-02-28T01:14:00;0.60;1.00
13744;DHT22;6943;52.368;9.966;2023-02-28T01:16:27;0.60;1.00
13744;DHT22;6943;52.368;9.966;2023-02-28T01:18:53;0.60;1.00
13744;DHT22;6943;52.368;9.966;2023-02-28T01:21:20;0.60;1.00
13744;DHT22;6943;52.368;9.966;2023-02-28T01:23:46;0.60;1.00
13744;DHT22;6943;52.368;9.966;2023-02-28T01:26:16;0.50;42.30
13744;DHT22;6943;52.368;9.966;2023-02-28T01:28:42;0.60;99.90
13744;DHT22;6943;52.368;9.966;2023-02-28T01:31:09;0.50;15.10
13744;DHT22;6943;52.368;9.966;2023-02-28T01:33:34;0.40;1.00
13744;DHT22;6943;52.368;9.966;2023-02-28T01:36:02;0.40;70.20
13744;DHT22;6943;52.368;9.966;2023-02-28T01:38:28;0.30;99.90
13744;DHT22;6943;52.368;9.966;2023-02-28T01:40:54;0.20;72.50
13744;DHT22;6943;52.368;9.966;2023-02-28T01:43:31;0.10;99.90
13744;DHT22;6943;52.368;9.966;2023-02-28T01:45:58;0.20;1.00
13744;DHT22;6943;52.368;9.966;2023-02-28T01:48:30;0.20;1.00
13744;DHT22;6943;52.368;9.966;2023-02-28T01:51:01;0.10;1.00
13744;DHT22;6943;52.368;9.966;2023-02-28T01:53:38;0.20;1.00
13744;DHT22;6943;52.368;9.966;2023-02-28T01:56:06;0.20;1.00
13744;DHT22;6943;52.368;9.966;2023-02-28T01:58:32;0.10;1.00
13744;DHT22;6943;52.368;9.966;2023-02-28T02:00:58;0.10;1.00
13744;DHT22;6943;52.368;9.966;2023-02-28T02:03:24;0.10;1.00
13744;DHT22;6943;52.368;9.966;2023-02-28T02:05:50;0.10;1.00
13744;DHT22;6943;52.368;9.966;2023-02-28T02:08:25;0.10;1.00
13744;DHT22;6943;52.368;9.966;2023-02-28T02:10:54;0.10;1.00
13744;DHT22;6943;52.368;9.966;2023-02-28T02:13:49;0.00;1.00
13744;DHT22;6943;52.368;9.966;2023-02-28T02:25:18;-0.10;1.00
13744;DHT22;6943;52.368;9.966;2023-02-28T02:30:44;-0.10;1.00
13744;DHT22;6943;52.368;9.966;2023-02-28T02:36:33;-0.20;1.00
13744;DHT22;6943;52.368;9.966;2023-02-28T02:39:10;-0.20;1.00
13744;DHT22;6943;52.368;9.966;2023-02-28T02:41:45;-0.20;1.00
13744;DHT22;6943;52.368;9.966;2023-02-28T02:44:31;-0.30;1.00
13744;DHT22;6943;52.368;9.966;2023-02-28T02:47:10;-0.30;1.00
13744;DHT22;6943;52.368;9.966;2023-02-28T02:49:38;-0.30;1.00
13744;DHT22;6943;52.368;9.966;2023-02-28T02:52:08;-0.30;1.00
13744;DHT22;6943;52.368;9.966;2023-02-28T02:54:37;-0.30;1.00
13744;DHT22;6943;52.368;9.966;2023-02-28T02:57:11;-0.40;1.00
13744;DHT22;6943;52.368;9.966;2023-02-28T02:59:40;-0.40;1.00
13744;DHT22;6943;52.368;9.966;2023-02-28T03:02:09;-0.50;1.00
13744;DHT22;6943;52.368;9.966;2023-02-28T03:04:41;-0.50;1.00
13744;DHT22;6943;52.368;9.966;2023-02-28T03:07:07;-0.50;1.00
13744;DHT22;6943;52.368;9.966;2023-02-28T03:09:34;-0.60;1.00
13744;DHT22;6943;52.368;9.966;2023-02-28T03:12:01;-0.60;1.00
13744;DHT22;6943;52.368;9.966;2023-02-28T03:22:39;-0.70;1.00
13744;DHT22;6943;52.368;9.966;2023-02-28T03:30:45;-0.70;99.90
13744;DHT22;6943;52.368;9.966;2023-02-28T03:33:22;-0.80;99.90
13744;DHT22;6943;52.368;9.966;2023-02-28T03:36:02;-0.80;99.90
13744;DHT22;6943;52.368;9.966;2023-02-28T03:38:40;-0.90;99.90
13744;DHT22;6943;52.368;9.966;2023-02-28T03:41:16;-0.80;1.00
13744;DHT22;6943;52.368;9.966;2023-02-28T03:43:49;-0.80;99.90
13744;DHT22;6943;52.368;9.966;2023-02-28T03:46:18;-0.80;99.90
13744;DHT22;6943;52.368;9.966;2023-02-28T03:48:53;-0.90;99.90
13744;DHT22;6943;52.368;9.966;2023-02-28T03:51:22;-0.90;99.90
13744;DHT22;6943;52.368;9.966;2023-02-28T03:54:04;-0.90;99.90
13744;DHT22;6943;52.368;9.966;2023-02-28T03:56:42;-0.90;99.90
13744;DHT22;6943;52.368;9.966;2023-02-28T03:59:26;-1.00;1.00
13744;DHT22;6943;52.368;9.966;2023-02-28T04:01:53;-1.00;1.00
13744;DHT22;6943;52.368;9.966;2023-02-28T04:04:20;-1.00;1.00
13744;DHT22;6943;52.368;9.966;2023-02-28T04:06:50;-1.00;1.00
13744;DHT22;6943;52.368;9.966;2023-02-28T04:09:16;-0.90;1.00
13744;DHT22;6943;52.368;9.966;2023-02-28T04:11:50;-0.90;99.90
13744;DHT22;6943;52.368;9.966;2023-02-28T04:14:17;-0.90;99.90
13744;DHT22;6943;52.368;9.966;2023-02-28T04:16:43;-0.90;99.90
13744;DHT22;6943;52.368;9.966;2023-02-28T04:19:10;-0.90;97.10
13744;DHT22;6943;52.368;9.966;2023-02-28T04:21:48;-0.80;1.00
13744;DHT22;6943;52.368;9.966;2023-02-28T04:24:20;-0.80;1.00
13744;DHT22;6943;52.368;9.966;2023-02-28T04:26:48;-0.80;1.00
13744;DHT22;6943;52.368;9.966;2023-02-28T04:29:20;-0.80;1.00
13744;DHT22;6943;52.368;9.966;2023-02-28T04:31:46;-0.80;1.00
13744;DHT22;6943;52.368;9.966;2023-02-28T04:34:11;-0.80;1.00
13744;DHT22;6943;52.368;9.966;2023-02-28T04:36:37;-0.80;1.00
13744;DHT22;6943;52.368;9.966;2023-02-28T04:39:03;-0.80;1.00
13744;DHT22;6943;52.368;9.966;2023-02-28T04:41:29;-0.90;1.00
13744;DHT22;6943;52.368;9.966;2023-02-28T04:43:55;-0.90;1.00
13744;DHT22;6943;52.368;9.966;2023-02-28T04:46:21;-0.80;1.00
13744;DHT22;6943;52.368;9.966;2023-02-28T04:48:47;-0.80;1.00
13744;DHT22;6943;52.368;9.966;2023-02-28T04:51:14;-0.80;1.00
13744;DHT22;6943;52.368;9.966;2023-02-28T04:53:41;-0.70;99.90
13744;DHT22;6943;52.368;9.966;2023-02-28T04:56:07;-0.90;99.90
13744;DHT22;6943;52.368;9.966;2023-02-28T04:58:34;-1.00;99.90
13744;DHT22;6943;52.368;9.966;2023-02-28T05:01:23;-1.10;1.00
13744;DHT22;6943;52.368;9.966;2023-02-28T05:03:50;-1.20;1.00
13744;DHT22;6943;52.368;9.966;2023-02-28T05:06:17;-1.50;1.00
13744;DHT22;6943;52.368;9.966;2023-02-28T05:08:42;-1.70;1.00
13744;DHT22;6943;52.368;9.966;2023-02-28T05:11:21;-1.70;99.90
13744;DHT22;6943;52.368;9.966;2023-02-28T05:13:48;-1.70;1.00
13744;DHT22;6943;52.368;9.966;2023-02-28T05:16:14;-1.60;1.00
13744;DHT22;6943;52.368;9.966;2023-02-28T05:18:39;-1.70;1.00
13744;DHT22;6943;52.368;9.966;2023-02-28T05:21:05;-1.60;1.00
13744;DHT22;6943;52.368;9.966;2023-02-28T05:23:31;-1.60;35.20
13744;DHT22;6943;52.368;9.966;2023-02-28T05:25:57;-1.70;99.90
13744;DHT22;6943;52.368;9.966;2023-02-28T05:28:23;-1.70;1.00
13744;DHT22;6943;52.368;9.966;2023-02-28T05:30:48;-1.70;1.00
13744;DHT22;6943;52.368;9.966;2023-02-28T05:33:14;-1.60;1.00
13744;DHT22;6943;52.368;9.966;2023-02-28T05:35:41;-1.60;1.00
13744;DHT22;6943;52.368;9.966;2023-02-28T05:38:08;-1.60;1.00
13744;DHT22;6943;52.368;9.966;2023-02-28T05:40:33;-1.60;16.70
13744;DHT22;6943;52.368;9.966;2023-02-28T05:42:59;-1.70;99.90
13744;DHT22;6943;52.368;9.966;2023-02-28T05:45:25;-1.70;99.90
13744;DHT22;6943;52.368;9.966;2023-02-28T05:47:53;-1.70;1.00
13744;DHT22;6943;52.368;9.966;2023-02-28T05:50:19;-1.70;1.00
13744;DHT22;6943;52.368;9.966;2023-02-28T05:52:52;-1.60;1.00
13744;DHT22;6943;52.368;9.966;2023-02-28T05:55:17;-1.60;99.90
13744;DHT22;6943;52.368;9.966;2023-02-28T05:57:44;-1.60;87.60
13744;DHT22;6943;52.368;9.966;2023-02-28T06:00:10;-1.50;1.00
13744;DHT22;6943;52.368;9.966;2023-02-28T06:02:36;-1.50;1.00
13744;DHT22;6943;52.368;9.966;2023-02-28T06:05:01;-1.50;1.00
13744;DHT22;6943;52.368;9.966;2023-02-28T06:07:27;-1.40;99.90
13744;DHT22;6943;52.368;9.966;2023-02-28T06:09:52;-1.40;99.90
13744;DHT22;6943;52.368;9.966;2023-02-28T06:12:18;-1.30;1.00
13744;DHT22;6943;52.368;9.966;2023-02-28T06:14:43;-1.30;1.00
13744;DHT22;6943;52.368;9.966;2023-02-28T06:17:09;-1.30;1.00
13744;DHT22;6943;52.368;9.966;2023-02-28T06:19:37;-1.30;99.90
13744;DHT22;6943;52.368;9.966;2023-02-28T06:22:04;-1.20;99.90
13744;DHT22;6943;52.368;9.966;2023-02-28T06:24:29;-1.10;55.00
13744;DHT22;6943;52.368;9.966;2023-02-28T06:26:56;-1.10;1.00
13744;DHT22;6943;52.368;9.966;2023-02-28T06:29:24;-1.00;1.00
13744;DHT22;6943;52.368;9.966;2023-02-28T06:31:49;-0.90;1.00
13744;DHT22;6943;52.368;9.966;2023-02-28T06:34:16;-0.90;1.00
13744;DHT22;6943;52.368;9.966;2023-02-28T06:36:43;-0.80;99.90
13744;DHT22;6943;52.368;9.966;2023-02-28T06:39:09;-0.70;99.90
13744;DHT22;6943;52.368;9.966;2023-02-28T06:41:35;-0.60;18.00
13744;DHT22;6943;52.368;9.966;2023-02-28T06:44:10;-0.50;1.00
13744;DHT22;6943;52.368;9.966;2023-02-28T06:46:39;-0.70;1.00
13744;DHT22;6943;52.368;9.966;2023-02-28T06:49:04;-1.00;24.80
13744;DHT22;6943;52.368;9.966;2023-02-28T06:51:30;-1.20;1.00
13744;DHT22;6943;52.368;9.966;2023-02-28T06:53:55;-1.20;1.00
13744;DHT22;6943;52.368;9.966;2023-02-28T06:56:21;-1.40;99.90
13744;DHT22;6943;52.368;9.966;2023-02-28T06:58:49;-1.20;1.00
13744;DHT22;6943;52.368;9.966;2023-02-28T07:01:15;-1.20;99.90
13744;DHT22;6943;52.368;9.966;2023-02-28T07:03:40;-1.10;1.00
13744;DHT22;6943;52.368;9.966;2023-02-28T07:06:06;-0.90;99.90
13744;DHT22;6943;52.368;9.966;2023-02-28T07:08:33;-0.80;99.90
13744;DHT22;6943;52.368;9.966;2023-02-28T07:10:58;-0.70;1.00
13744;DHT22;6943;52.368;9.966;2023-02-28T07:13:24;-0.50;1.00
13744;DHT22;6943;52.368;9.966;2023-02-28T07:16:08;-0.40;1.00
13744;DHT22;6943;52.368;9.966;2023-02-28T07:18:35;-0.20;99.90
13744;DHT22;6943;52.368;9.966;2023-02-28T07:21:05;-0.10;99.90
13744;DHT22;6943;52.368;9.966;2023-02-28T07:23:31;0.10;1.00
13744;DHT22;6943;52.368;9.966;2023-02-28T07:25:57;0.30;1.00
13744;DHT22;6943;52.368;9.966;2023-02-28T07:28:22;0.50;1.00
13744;DHT22;6943;52.368;9.966;2023-02-28T07:30:48;0.60;99.90
13744;DHT22;6943;52.368;9.966;2023-02-28T07:33:13;0.70;99.90
13744;DHT22;6943;52.368;9.966;2023-02-28T07:35:39;0.80;99.90
13744;DHT22;6943;52.368;9.966;2023-02-28T07:38:05;0.80;1.00
13744;DHT22;6943;52.368;9.966;2023-02-28T07:40:33;0.90;1.00
13744;DHT22;6943;52.368;9.966;2023-02-28T07:43:00;1.00;1.00
13744;DHT22;6943;52.368;9.966;2023-02-28T07:45:26;1.10;1.00
13744;DHT22;6943;52.368;9.966;2023-02-28T07:47:51;1.20;1.00
13744;DHT22;6943;52.368;9.966;2023-02-28T07:50:17;1.80;1.00
13744;DHT22;6943;52.368;9.966;2023-02-28T07:52:43;3.70;1.00
13744;DHT22;6943;52.368;9.966;2023-02-28T07:55:09;5.70;1.00
13744;DHT22;6943;52.368;9.966;2023-02-28T07:57:35;7.70;99.90
13744;DHT22;6943;52.368;9.966;2023-02-28T08:00:02;8.50;99.90
13744;DHT22;6943;52.368;9.966;2023-02-28T08:02:28;8.40;99.90
13744;DHT22;6943;52.368;9.966;2023-02-28T08:04:54;9.40;99.90
13744;DHT22;6943;52.368;9.966;2023-02-28T08:07:19;9.40;99.90
13744;DHT22;6943;52.368;9.966;2023-02-28T08:09:45;9.30;99.90
13744;DHT22;6943;52.368;9.966;2023-02-28T08:12:11;9.90;99.90
13744;DHT22;6943;52.368;9.966;2023-02-28T08:14:37;10.00;99.90
13744;DHT22;6943;52.368;9.966;2023-02-28T08:17:03;10.50;99.90
13744;DHT22;6943;52.368;9.966;2023-02-28T08:19:30;10.90;99.90
13744;DHT22;6943;52.368;9.966;2023-02-28T08:21:55;11.30;99.90
13744;DHT22;6943;52.368;9.966;2023-02-28T08:24:21;11.00;99.90
13744;DHT22;6943;52.368;9.966;2023-02-28T08:26:46;11.00;99.90
13744;DHT22;6943;52.368;9.966;2023-02-28T08:29:12;12.60;99.90
13744;DHT22;6943;52.368;9.966;2023-02-28T08:31:38;13.10;99.90
13744;DHT22;6943;52.368;9.966;2023-02-28T08:34:07;11.80;99.90
13744;DHT22;6943;52.368;9.966;2023-02-28T08:36:34;11.40;99.90
13744;DHT22;6943;52.368;9.966;2023-02-28T08:39:00;11.40;99.90
13744;DHT22;6943;52.368;9.966;2023-02-28T08:41:26;10.70;99.90
13744;DHT22;6943;52.368;9.966;2023-02-28T08:43:51;10.90;99.90
13744;DHT22;6943;52.368;9.966;2023-02-28T08:46:17;10.50;99.90
13744;DHT22;6943;52.368;9.966;2023-02-28T08:48:43;11.00;99.90
13744;DHT22;6943;52.368;9.966;2023-02-28T08:51:18;10.30;99.90
13744;DHT22;6943;52.368;9.966;2023-02-28T08:53:47;9.50;99.90
13744;DHT22;6943;52.368;9.966;2023-02-28T08:56:15;9.60;99.90
13744;DHT22;6943;52.368;9.966;2023-02-28T08:58:42;10.20;99.90
13744;DHT22;6943;52.368;9.966;2023-02-28T09:01:14;10.60;99.90
13744;DHT22;6943;52.368;9.966;2023-02-28T09:03:41;10.90;99.90
13744;DHT22;6943;52.368;9.966;2023-02-28T09:06:08;10.30;99.90
13744;DHT22;6943;52.368;9.966;2023-02-28T09:08:34;10.10;99.90
13744;DHT22;6943;52.368;9.966;2023-02-28T09:11:00;9.70;99.90
13744;DHT22;6943;52.368;9.966;2023-02-28T09:13:27;9.90;99.90
13744;DHT22;6943;52.368;9.966;2023-02-28T09:15:54;9.30;99.90
13744;DHT22;6943;52.368;9.966;2023-02-28T09:18:20;8.60;99.90
13744;DHT22;6943;52.368;9.966;2023-02-28T09:20:46;8.50;99.90
13744;DHT22;6943;52.368;9.966;2023-02-28T09:23:12;9.30;99.90
13744;DHT22;6943;52.368;9.966;2023-02-28T09:25:40;9.30;99.90
13744;DHT22;6943;52.368;9.966;2023-02-28T09:28:10;8.50;99.90
13744;DHT22;6943;52.368;9.966;2023-02-28T09:30:36;8.20;99.90
13744;DHT22;6943;52.368;9.966;2023-02-28T09:33:02;8.20;99.90
13744;DHT22;6943;52.368;9.966;2023-02-28T09:35:27;7.90;99.90
13744;DHT22;6943;52.368;9.966;2023-02-28T09:37:53;7.70;99.90
13744;DHT22;6943;52.368;9.966;2023-02-28T09:40:20;7.10;99.90
13744;DHT22;6943;52.368;9.966;2023-02-28T09:42:49;7.40;99.90
13744;DHT22;6943;52.368;9.966;2023-02-28T09:45:24;7.50;99.90
13744;DHT22;6943;52.368;9.966;2023-02-28T09:47:54;6.70;99.90
13744;DHT22;6943;52.368;9.966;2023-02-28T09:50:42;5.90;99.90
13744;DHT22;6943;52.368;9.966;2023-02-28T09:53:27;5.10;99.90
13744;DHT22;6943;52.368;9.966;2023-02-28T09:55:57;4.50;99.90
13744;DHT22;6943;52.368;9.966;2023-02-28T09:58:33;4.20;99.90
13744;DHT22;6943;52.368;9.966;2023-02-28T10:01:21;4.30;99.90
13744;DHT22;6943;52.368;9.966;2023-02-28T10:03:51;4.30;99.90
13744;DHT22;6943;52.368;9.966;2023-02-28T10:06:21;4.20;99.90
13744;DHT22;6943;52.368;9.966;2023-02-28T10:11:27;4.10;99.90
13744;DHT22;6943;52.368;9.966;2023-02-28T10:13:59;4.20;99.90
13744;DHT22;6943;52.368;9.966;2023-02-28T10:16:33;4.40;99.90
13744;DHT22;6943;52.368;9.966;2023-02-28T10:19:14;4.50;99.90
13744;DHT22;6943;52.368;9.966;2023-02-28T10:21:46;4.50;99.90
13744;DHT22;6943;52.368;9.966;2023-02-28T10:26:58;4.30;99.90
13744;DHT22;6943;52.368;9.966;2023-02-28T10:29:24;4.40;99.90
13744;DHT22;6943;52.368;9.966;2023-02-28T10:31:50;4.50;99.90
13744;DHT22;6943;52.368;9.966;2023-02-28T10:34:15;4.50;99.90
13744;DHT22;6943;52.368;9.966;2023-02-28T10:36:41;4.40;99.90
13744;DHT22;6943;52.368;9.966;2023-02-28T10:39:34;4.30;99.90
13744;DHT22;6943;52.368;9.966;2023-02-28T10:42:00;4.30;99.90
13744;DHT22;6943;52.368;9.966;2023-02-28T10:44:25;4.40;99.90
13744;DHT22;6943;52.368;9.966;2023-02-28T10:46:51;4.60;99.90
13744;DHT22;6943;52.368;9.966;2023-02-28T10:49:25;4.70;99.90
13744;DHT22;6943;52.368;9.966;2023-02-28T10:51:56;4.90;99.90
13744;DHT22;6943;52.368;9.966;2023-02-28T10:54:27;4.80;99.90
13744;DHT22;6943;52.368;9.966;2023-02-28T10:57:17;4.90;99.90
13744;DHT22;6943;52.368;9.966;2023-02-28T10:59:43;5.00;99.90
13744;DHT22;6943;52.368;9.966;2023-02-28T11:02:30;5.20;99.90
13744;DHT22;6943;52.368;9.966;2023-02-28T11:04:57;5.40;99.90
13744;DHT22;6943;52.368;9.966;2023-02-28T11:07:25;5.50;99.90
13744;DHT22;6943;52.368;9.966;2023-02-28T11:09:52;5.50;99.90
13744;DHT22;6943;52.368;9.966;2023-02-28T11:12:28;5.40;99.90
13744;DHT22;6943;52.368;9.966;2023-02-28T11:15:28;5.60;99.90
13744;DHT22;6943;52.368;9.966;2023-02-28T11:18:30;5.80;99.90
13744;DHT22;6943;52.368;9.966;2023-02-28T11:20:50;5.70;99.90
13744;DHT22;6943;52.368;9.966;2023-02-28T11:23:16;5.70;99.90
13744;DHT22;6943;52.368;9.966;2023-02-28T11:25:52;5.70;99.90
13744;DHT22;6943;52.368;9.966;2023-02-28T11:28:41;5.20;99.90
13744;DHT22;6943;52.368;9.966;2023-02-28T11:33:42;5.20;99.90
13744;DHT22;6943;52.368;9.966;2023-02-28T11:36:13;5.10;99.90
13744;DHT22;6943;52.368;9.966;2023-02-28T11:38:40;5.10;99.90
13744;DHT22;6943;52.368;9.966;2023-02-28T11:44:16;5.50;99.90
13744;DHT22;6943;52.368;9.966;2023-02-28T11:46:49;5.40;99.90
13744;DHT22;6943;52.368;9.966;2023-02-28T11:52:19;5.30;99.90
13744;DHT22;6943;52.368;9.966;2023-02-28T11:55:07;5.40;99.90
13744;DHT22;6943;52.368;9.966;2023-02-28T12:01:10;5.10;99.90
13744;DHT22;6943;52.368;9.966;2023-02-28T12:03:52;5.30;99.90
13744;DHT22;6943;52.368;9.966;2023-02-28T12:06:33;5.40;99.90
13744;DHT22;6943;52.368;9.966;2023-02-28T12:09:32;5.50;99.90
13744;DHT22;6943;52.368;9.966;2023-02-28T12:17:51;5.30;99.90
13744;DHT22;6943;52.368;9.966;2023-02-28T12:23:21;5.40;99.90
13744;DHT22;6943;52.368;9.966;2023-02-28T12:28:53;5.30;99.90
13744;DHT22;6943;52.368;9.966;2023-02-28T12:31:42;5.40;99.90
13744;DHT22;6943;52.368;9.966;2023-02-28T12:34:18;5.40;99.90
13744;DHT22;6943;52.368;9.966;2023-02-28T12:36:47;5.40;99.90
13744;DHT22;6943;52.368;9.966;2023-02-28T12:39:26;5.60;99.90
13744;DHT22;6943;52.368;9.966;2023-02-28T12:41:56;5.70;99.90
13744;DHT22;6943;52.368;9.966;2023-02-28T12:47:00;5.40;99.90
13744;DHT22;6943;52.368;9.966;2023-02-28T12:52:02;5.20;99.90
13744;DHT22;6943;52.368;9.966;2023-02-28T12:54:35;5.30;99.90
13744;DHT22;6943;52.368;9.966;2023-02-28T12:57:32;5.50;99.90
13744;DHT22;6943;52.368;9.966;2023-02-28T13:00:04;5.70;99.90
13744;DHT22;6943;52.368;9.966;2023-02-28T13:03:00;5.50;99.90
13744;DHT22;6943;52.368;9.966;2023-02-28T13:09:15;5.50;99.90
13744;DHT22;6943;52.368;9.966;2023-02-28T13:11:49;5.60;99.90
13744;DHT22;6943;52.368;9.966;2023-02-28T13:14:43;5.80;99.90
13744;DHT22;6943;52.368;9.966;2023-02-28T13:24:52;5.60;99.90
13744;DHT22;6943;52.368;9.966;2023-02-28T13:27:31;5.60;99.90
13744;DHT22;6943;52.368;9.966;2023-02-28T13:29:57;5.60;99.90
13744;DHT22;6943;52.368;9.966;2023-02-28T13:39:53;5.40;99.90
13744;DHT22;6943;52.368;9.966;2023-02-28T13:47:52;5.60;99.90
13744;DHT22;6943;52.368;9.966;2023-02-28T14:06:57;5.40;99.90
13744;DHT22;6943;52.368;9.966;2023-02-28T14:09:38;5.30;99.90
13744;DHT22;6943;52.368;9.966;2023-02-28T14:16:00;5.40;99.90
13744;DHT22;6943;52.368;9.966;2023-02-28T14:18:31;5.40;99.90
13744;DHT22;6943;52.368;9.966;2023-02-28T14:24:20;5.50;99.90
13744;DHT22;6943;52.368;9.966;2023-02-28T14:38:40;5.30;99.90
13744;DHT22;6943;52.368;9.966;2023-02-28T14:41:38;5.30;99.90
13744;DHT22;6943;52.368;9.966;2023-02-28T14:44:25;5.30;99.90
13744;DHT22;6943;52.368;9.966;2023-02-28T14:47:02;5.20;99.90
13744;DHT22;6943;52.368;9.966;2023-02-28T14:49:51;5.30;99.90
13744;DHT22;6943;52.368;9.966;2023-02-28T14:52:25;5.40;99.90
13744;DHT22;6943;52.368;9.966;2023-02-28T14:54:54;5.40;99.90
13744;DHT22;6943;52.368;9.966;2023-02-28T14:57:23;5.30;99.90
13744;DHT22;6943;52.368;9.966;2023-02-28T15:00:01;5.40;99.90
13744;DHT22;6943;52.368;9.966;2023-02-28T15:02:34;5.20;99.90
13744;DHT22;6943;52.368;9.966;2023-02-28T15:07:43;5.20;99.90
13744;DHT22;6943;52.368;9.966;2023-02-28T15:10:10;5.10;99.90
13744;DHT22;6943;52.368;9.966;2023-02-28T15:12:37;5.10;99.90
13744;DHT22;6943;52.368;9.966;2023-02-28T15:15:05;5.10;99.90
13744;DHT22;6943;52.368;9.966;2023-02-28T15:17:31;5.10;99.90
13744;DHT22;6943;52.368;9.966;2023-02-28T15:19:57;6.70;99.90
13744;DHT22;6943;52.368;9.966;2023-02-28T15:22:31;5.20;99.90
13744;DHT22;6943;52.368;9.966;2023-02-28T15:24:59;5.20;99.90
13744;DHT22;6943;52.368;9.966;2023-02-28T15:27:27;5.10;99.90
13744;DHT22;6943;52.368;9.966;2023-02-28T15:29:57;5.10;99.90
13744;DHT22;6943;52.368;9.966;2023-02-28T15:32:29;5.10;99.90
13744;DHT22;6943;52.368;9.966;2023-02-28T15:34:56;5.10;99.90
13744;DHT22;6943;52.368;9.966;2023-02-28T15:37:45;5.10;99.90
13744;DHT22;6943;52.368;9.966;2023-02-28T15:40:13;5.10;99.90
13744;DHT22;6943;52.368;9.966;2023-02-28T15:42:39;5.00;99.90
13744;DHT22;6943;52.368;9.966;2023-02-28T15:45:05;5.00;99.90
13744;DHT22;6943;52.368;9.966;2023-02-28T15:47:31;5.00;99.90
13744;DHT22;6943;52.368;9.966;2023-02-28T15:50:02;5.00;99.90
13744;DHT22;6943;52.368;9.966;2023-02-28T15:54:54;4.90;99.90
13744;DHT22;6943;52.368;9.966;2023-02-28T15:57:22;5.00;99.90
13744;DHT22;6943;52.368;9.966;2023-02-28T15:59:55;4.90;99.90
13744;DHT22;6943;52.368;9.966;2023-02-28T16:02:31;4.90;99.90
13744;DHT22;6943;52.368;9.966;2023-02-28T16:05:16;4.80;99.90
13744;DHT22;6943;52.368;9.966;2023-02-28T16:07:43;4.80;99.90
13744;DHT22;6943;52.368;9.966;2023-02-28T16:10:12;4.70;99.90
13744;DHT22;6943;52.368;9.966;2023-02-28T16:12:40;4.70;99.90
13744;DHT22;6943;52.368;9.966;2023-02-28T16:15:08;4.60;99.90
13744;DHT22;6943;52.368;9.966;2023-02-28T16:17:37;4.60;99.90
13744;DHT22;6943;52.368;9.966;2023-02-28T16:20:18;4.60;99.90
13744;DHT22;6943;52.368;9.966;2023-02-28T16:22:44;4.50;99.90
13744;DHT22;6943;52.368;9.966;2023-02-28T16:25:18;4.40;99.90
13744;DHT22;6943;52.368;9.966;2023-02-28T16:27:47;4.40;99.90
13744;DHT22;6943;52.368;9.966;2023-02-28T16:30:23;4.40;99.90
13744;DHT22;6943;52.368;9.966;2023-02-28T16:32:49;4.30;99.90
13744;DHT22;6943;52.368;9.966;2023-02-28T16:35:16;4.30;99.90
13744;DHT22;6943;52.368;9.966;2023-02-28T16:37:43;4.20;99.90
13744;DHT22;6943;52.368;9.966;2023-02-28T16:40:29;4.10;99.90
13744;DHT22;6943;52.368;9.966;2023-02-28T16:43:03;4.00;99.90
13744;DHT22;6943;52.368;9.966;2023-02-28T16:45:30;3.90;99.90
13744;DHT22;6943;52.368;9.966;2023-02-28T16:47:56;3.90;99.90
13744;DHT22;6943;52.368;9.966;2023-02-28T16:50:27;3.90;99.90
13744;DHT22;6943;52.368;9.966;2023-02-28T16:52:53;3.90;99.90
13744;DHT22;6943;52.368;9.966;2023-02-28T16:55:20;3.80;99.90
13744;DHT22;6943;52.368;9.966;2023-02-28T16:57:57;3.80;99.90
13744;DHT22;6943;52.368;9.966;2023-02-28T17:00:23;3.70;99.90
13744;DHT22;6943;52.368;9.966;2023-02-28T17:02:49;3.60;99.90
13744;DHT22;6943;52.368;9.966;2023-02-28T17:05:15;3.60;99.90
13744;DHT22;6943;52.368;9.966;2023-02-28T17:07:42;3.50;99.90
13744;DHT22;6943;52.368;9.966;2023-02-28T17:10:21;3.40;99.90
13744;DHT22;6943;52.368;9.966;2023-02-28T17:12:47;4.80;99.90
13744;DHT22;6943;52.368;9.966;2023-02-28T17:15:15;3.40;99.90
13744;DHT22;6943;52.368;9.966;2023-02-28T17:17:41;3.30;99.90
13744;DHT22;6943;52.368;9.966;2023-02-28T17:20:15;3.30;99.90
13744;DHT22;6943;52.368;9.966;2023-02-28T17:22:41;3.20;99.90
13744;DHT22;6943;52.368;9.966;2023-02-28T17:25:08;3.20;99.90
13744;DHT22;6943;52.368;9.966;2023-02-28T17:27:34;3.00;99.90
13744;DHT22;6943;52.368;9.966;2023-02-28T17:29:59;3.00;99.90
13744;DHT22;6943;52.368;9.966;2023-02-28T17:32:26;2.90;99.90
13744;DHT22;6943;52.368;9.966;2023-02-28T17:34:52;2.90;99.90
13744;DHT22;6943;52.368;9.966;2023-02-28T17:37:18;2.80;99.90
13744;DHT22;6943;52.368;9.966;2023-02-28T17:39:44;2.80;99.90
13744;DHT22;6943;52.368;9.966;2023-02-28T17:42:09;2.70;99.90
13744;DHT22;6943;52.368;9.966;2023-02-28T17:44:35;2.70;99.90
13744;DHT22;6943;52.368;9.966;2023-02-28T17:47:00;2.70;99.90
13744;DHT22;6943;52.368;9.966;2023-02-28T17:49:26;2.70;1.00
13744;DHT22;6943;52.368;9.966;2023-02-28T17:51:52;2.80;1.00
13744;DHT22;6943;52.368;9.966;2023-02-28T17:54:17;2.70;1.00
13744;DHT22;6943;52.368;9.966;2023-02-28T17:56:43;2.60;1.00
13744;DHT22;6943;52.368;9.966;2023-02-28T17:59:09;2.60;1.00
13744;DHT22;6943;52.368;9.966;2023-02-28T18:01:35;2.50;1.00
13744;DHT22;6943;52.368;9.966;2023-02-28T18:04:01;2.00;1.00
13744;DHT22;6943;52.368;9.966;2023-02-28T18:06:38;2.30;1.00
13744;DHT22;6943;52.368;9.966;2023-02-28T18:09:22;2.30;1.00
13744;DHT22;6943;52.368;9.966;2023-02-28T18:11:49;2.30;1.00
13744;DHT22;6943;52.368;9.966;2023-02-28T18:14:15;2.30;1.00
13744;DHT22;6943;52.368;9.966;2023-02-28T18:16:41;2.30;1.00
13744;DHT22;6943;52.368;9.966;2023-02-28T18:19:08;2.20;1.00
13744;DHT22;6943;52.368;9.966;2023-02-28T18:21:50;2.30;1.00
13744;DHT22;6943;52.368;9.966;2023-02-28T18:24:17;2.20;1.00
13744;DHT22;6943;52.368;9.966;2023-02-28T18:26:43;2.10;1.00